createdAt,value
2023-04-26T00:01:34.821Z,5.70
2023-04-26T00:04:02.124Z,5.60
2023-04-26T00:06:29.107Z,5.60
2023-04-26T00:08:55.994Z,5.60
2023-04-26T00:11:24.275Z,5.60
2023-04-26T00:13:51.037Z,5.60
2023-04-26T00:16:17.929Z,5.60
2023-04-26T00:18:44.900Z,5.60
2023-04-26T00:21:11.642Z,5.60
2023-04-26T00:23:38.394Z,5.60
2023-04-26T00:26:05.323Z,5.60
2023-04-26T00:28:33.500Z,5.60
2023-04-26T00:31:00.230Z,5.50
2023-04-26T00:33:27.005Z,5.50
2023-04-26T00:35:53.745Z,5.50
2023-04-26T00:38:20.477Z,5.50
2023-04-26T00:40:47.289Z,5.50
2023-04-26T00:43:14.169Z,5.60
2023-04-26T00:45:42.434Z,5.60
2023-04-26T00:48:09.313Z,5.60
2023-04-26T00:50:36.195Z,5.70
2023-04-26T00:53:03.438Z,5.70
2023-04-26T00:55:30.289Z,5.70
2023-04-26T00:57:57.128Z,5.70
2023-04-26T01:00:23.913Z,5.60
2023-04-26T01:02:52.279Z,5.60
2023-04-26T01:05:19.408Z,5.50
2023-04-26T01:07:46.566Z,5.50
2023-04-26T01:10:13.390Z,5.50
2023-04-26T01:12:40.807Z,5.40
2023-04-26T01:15:08.484Z,5.40
2023-04-26T01:17:35.297Z,5.40
2023-04-26T01:20:04.247Z,5.40
2023-04-26T01:22:34.703Z,5.40
2023-04-26T01:25:03.803Z,5.40
2023-04-26T01:27:30.570Z,5.40
2023-04-26T01:29:57.322Z,5.30
2023-04-26T01:32:24.112Z,5.30
2023-04-26T01:34:50.849Z,5.20
2023-04-26T01:37:17.592Z,5.20
2023-04-26T01:39:45.711Z,5.20
2023-04-26T01:42:12.480Z,5.20
2023-04-26T01:44:39.272Z,5.20
2023-04-26T01:47:06.002Z,5.20
2023-04-26T01:49:32.960Z,5.20
2023-04-26T01:52:01.104Z,5.20
2023-04-26T01:54:27.919Z,5.20
2023-04-26T01:56:56.047Z,5.20
2023-04-26T01:59:22.959Z,5.10
2023-04-26T02:01:49.858Z,5.10
2023-04-26T02:04:16.671Z,5.00
2023-04-26T02:06:43.403Z,5.00
2023-04-26T02:09:10.142Z,5.00
2023-04-26T02:11:37.043Z,5.00
2023-04-26T02:14:05.164Z,4.90
2023-04-26T02:16:32.154Z,4.90
2023-04-26T02:18:59.157Z,4.90
2023-04-26T02:21:26.022Z,4.90
2023-04-26T02:23:52.886Z,4.80
2023-04-26T02:26:19.712Z,4.90
2023-04-26T02:28:46.447Z,4.90
2023-04-26T02:31:14.643Z,4.90
2023-04-26T02:33:41.524Z,4.80
2023-04-26T02:36:08.556Z,4.80
2023-04-26T02:38:35.786Z,4.80
2023-04-26T02:41:03.492Z,4.80
2023-04-26T02:43:30.380Z,4.70
2023-04-26T02:45:57.245Z,4.70
2023-04-26T02:48:25.362Z,4.70
2023-04-26T02:50:52.195Z,4.60
2023-04-26T02:53:19.186Z,4.60
2023-04-26T02:55:45.991Z,4.60
2023-04-26T02:58:12.760Z,4.60
2023-04-26T03:00:39.634Z,4.60
2023-04-26T03:03:06.490Z,4.60
2023-04-26T03:05:34.798Z,4.60
2023-04-26T03:08:01.614Z,4.60
2023-04-26T03:10:28.427Z,4.60
2023-04-26T03:12:55.207Z,4.60
2023-04-26T03:15:21.972Z,4.60
2023-04-26T03:17:48.845Z,4.50
2023-04-26T03:20:15.753Z,4.50
2023-04-26T03:22:43.849Z,4.50
2023-04-26T03:25:10.889Z,4.50
2023-04-26T03:27:37.636Z,4.50
2023-04-26T03:30:05.402Z,4.50
2023-04-26T03:32:32.156Z,4.50
2023-04-26T03:34:59.099Z,4.40
2023-04-26T03:37:25.945Z,4.40
2023-04-26T03:39:54.157Z,4.40
2023-04-26T03:42:21.234Z,4.40
2023-04-26T03:44:48.153Z,4.40
2023-04-26T03:47:14.910Z,4.40
2023-04-26T03:49:41.749Z,4.40
2023-04-26T03:52:08.486Z,4.40
2023-04-26T03:54:35.322Z,4.40
2023-04-26T03:57:03.441Z,4.50
2023-04-26T03:59:30.289Z,4.50
2023-04-26T04:01:57.045Z,4.50
2023-04-26T04:04:24.103Z,4.50
2023-04-26T04:06:51.087Z,4.50
2023-04-26T04:09:17.887Z,4.50
2023-04-26T04:11:45.819Z,4.50
2023-04-26T04:14:15.737Z,4.50
2023-04-26T04:16:42.589Z,4.50
2023-04-26T04:19:09.538Z,4.50
2023-04-26T04:21:36.306Z,4.60
2023-04-26T04:24:03.447Z,4.70
2023-04-26T04:26:30.204Z,4.70
2023-04-26T04:28:56.974Z,4.80
2023-04-26T04:31:25.231Z,4.80
2023-04-26T04:33:52.033Z,4.80
2023-04-26T04:36:18.808Z,4.80
2023-04-26T04:38:45.572Z,4.90
2023-04-26T04:41:12.321Z,4.90
2023-04-26T04:43:39.410Z,5.00
2023-04-26T04:46:06.296Z,5.00
2023-04-26T14:01:13.399Z,19.50
2023-04-26T14:03:41.834Z,18.60
2023-04-26T14:06:08.797Z,18.40
2023-04-26T14:08:35.651Z,18.60
2023-04-26T14:11:02.542Z,19.90
2023-04-26T14:13:29.336Z,22.00
2023-04-26T14:15:56.225Z,23.30
2023-04-26T14:18:23.027Z,23.10
2023-04-26T14:20:51.257Z,22.40
2023-04-26T14:23:18.051Z,21.60
2023-04-26T14:25:44.851Z,20.70
2023-04-26T14:28:11.663Z,20.10
2023-04-26T14:30:38.599Z,19.40
2023-04-26T14:33:05.470Z,18.70
2023-04-26T14:35:32.215Z,18.10
2023-04-26T14:38:00.396Z,17.30
2023-04-26T14:40:27.152Z,16.70
2023-04-26T14:42:53.887Z,16.20
2023-04-26T14:45:23.674Z,15.70
2023-04-26T14:47:54.609Z,15.70
2023-04-26T14:50:21.437Z,15.60
2023-04-26T14:52:48.441Z,16.50
2023-04-26T14:55:18.844Z,18.60
2023-04-26T14:57:45.641Z,20.90
2023-04-26T15:00:13.555Z,21.10
2023-04-26T15:02:40.492Z,20.70
2023-04-26T15:05:08.390Z,20.00
2023-04-26T15:07:35.440Z,18.80
2023-04-26T15:10:02.232Z,17.80
2023-04-26T15:12:30.357Z,16.90
2023-04-26T15:14:57.272Z,16.30
2023-04-26T15:17:24.350Z,15.80
2023-04-26T15:19:51.210Z,15.60
2023-04-26T15:22:18.036Z,15.70
2023-04-26T15:24:44.861Z,15.80
2023-04-26T15:27:11.768Z,16.40
2023-04-26T15:29:39.938Z,17.80
2023-04-26T15:32:06.740Z,18.90
2023-04-26T15:34:39.917Z,20.50
2023-04-26T15:37:06.717Z,21.80
2023-04-26T15:39:33.591Z,22.60
2023-04-26T15:42:00.402Z,24.00
2023-04-26T15:44:27.557Z,24.80
2023-04-26T15:46:55.810Z,24.00
2023-04-26T15:49:23.557Z,22.60
2023-04-26T15:51:50.362Z,21.10
2023-04-26T15:54:17.130Z,20.70
2023-04-26T15:56:44.277Z,21.60
2023-04-26T15:59:11.145Z,22.20
2023-04-26T16:01:38.066Z,22.20
2023-04-26T16:04:06.745Z,21.70
2023-04-26T16:06:33.704Z,21.10
2023-04-26T16:09:01.292Z,20.60
2023-04-26T16:11:28.903Z,19.80
2023-04-26T16:13:56.318Z,18.80
2023-04-26T16:16:23.270Z,18.10
2023-04-26T16:18:50.240Z,17.40
2023-04-26T16:21:18.365Z,17.20
2023-04-26T16:23:45.424Z,17.00
2023-04-26T16:26:12.253Z,16.80
2023-04-26T16:28:39.039Z,16.80
2023-04-26T16:31:05.900Z,16.50
2023-04-26T16:33:32.696Z,16.20
2023-04-26T16:35:59.502Z,15.80
2023-04-26T16:38:27.667Z,15.70
2023-04-26T16:40:54.609Z,15.50
2023-04-26T16:43:21.470Z,15.10
2023-04-26T16:45:56.219Z,14.90
2023-04-26T16:48:23.164Z,14.60
2023-04-26T16:50:50.041Z,14.50
2023-04-26T16:53:17.007Z,14.40
2023-04-26T16:55:45.263Z,14.10
2023-04-26T16:58:11.995Z,13.90
2023-04-26T17:00:38.906Z,13.70
2023-04-26T17:03:06.167Z,13.50
2023-04-26T17:05:37.499Z,13.30
2023-04-26T17:08:04.389Z,13.20
2023-04-26T17:10:32.567Z,13.10
2023-04-26T17:13:01.435Z,13.10
2023-04-26T17:15:28.554Z,13.00
2023-04-26T17:17:55.369Z,13.00
2023-04-26T17:20:23.114Z,13.00
2023-04-26T17:22:49.956Z,12.90
2023-04-26T17:25:17.068Z,12.90
2023-04-26T17:27:43.871Z,12.80
2023-04-26T17:30:12.931Z,12.80
2023-04-26T17:32:39.692Z,12.60
2023-04-26T17:35:06.912Z,12.50
2023-04-26T17:37:33.787Z,12.40
2023-04-26T17:40:00.564Z,12.40
2023-04-26T17:42:27.405Z,12.40
2023-04-26T17:44:54.121Z,12.30
2023-04-26T17:47:22.271Z,12.20
2023-04-26T17:49:49.000Z,12.10
2023-04-26T17:52:15.765Z,12.00
2023-04-26T17:54:42.614Z,11.90
2023-04-26T17:57:09.683Z,11.80
2023-04-26T17:59:36.468Z,11.60
2023-04-26T18:02:03.334Z,11.50
2023-04-26T18:04:31.657Z,11.30
2023-04-26T18:06:58.810Z,11.20
2023-04-26T18:09:25.581Z,11.30
2023-04-26T18:11:52.366Z,11.40
2023-04-26T18:14:19.117Z,11.30
2023-04-26T18:16:46.009Z,11.10
2023-04-26T18:19:12.815Z,10.90
2023-04-26T18:21:44.101Z,10.60
2023-04-26T18:24:10.938Z,10.40
2023-04-26T18:26:39.040Z,10.20
2023-04-26T18:29:06.085Z,10.10
2023-04-26T18:31:33.480Z,10.00
2023-04-26T18:34:00.349Z,9.90
2023-04-26T18:36:27.221Z,9.80
2023-04-26T18:38:55.465Z,9.70
2023-04-26T18:41:22.218Z,9.60
2023-04-26T18:43:49.021Z,9.50
2023-04-26T18:46:15.854Z,9.50
2023-04-26T18:48:42.649Z,9.50
2023-04-26T18:51:09.425Z,9.50
2023-04-26T18:53:36.184Z,9.50
2023-04-26T18:56:04.729Z,9.50
2023-04-26T18:58:31.644Z,9.50
2023-04-26T19:00:58.457Z,9.50
2023-04-26T19:03:26.153Z,9.50
2023-04-26T19:05:53.087Z,9.50
2023-04-26T19:08:19.898Z,9.50
2023-04-26T19:10:46.644Z,9.50
2023-04-26T19:13:14.794Z,9.50
2023-04-26T19:15:41.608Z,9.40
2023-04-26T19:18:08.582Z,9.30
2023-04-26T19:20:35.467Z,9.20
2023-04-26T19:23:02.215Z,9.10
2023-04-26T19:25:29.049Z,8.90
2023-04-26T19:27:55.786Z,8.90
2023-04-26T19:30:23.958Z,8.70
2023-04-26T19:32:50.768Z,8.60
2023-04-26T19:35:17.536Z,8.50
2023-04-26T19:37:44.288Z,8.40
2023-04-26T19:40:11.109Z,8.30
2023-04-26T19:42:37.851Z,8.20
2023-04-26T19:45:05.347Z,8.10
2023-04-26T19:47:33.545Z,8.00
2023-04-26T19:50:00.281Z,7.90
2023-04-26T19:52:28.691Z,7.80
2023-04-26T19:54:55.571Z,7.80
2023-04-26T19:57:22.339Z,7.70
2023-04-26T19:59:49.056Z,7.60
2023-04-26T20:02:15.957Z,7.60
2023-04-26T20:04:44.186Z,7.60
2023-04-26T20:07:10.938Z,7.60
2023-04-26T20:09:37.682Z,7.60
2023-04-26T20:12:04.679Z,7.70
2023-04-26T20:14:31.430Z,7.70
2023-04-26T20:16:58.283Z,7.80
2023-04-26T20:19:25.052Z,7.90
2023-04-26T20:21:53.184Z,7.90
2023-04-26T20:24:19.989Z,8.00
2023-04-26T20:26:46.772Z,8.10
2023-04-26T20:29:13.589Z,8.10
2023-04-26T20:31:40.462Z,8.10
2023-04-26T20:34:07.237Z,8.20
2023-04-26T20:36:34.085Z,8.20
2023-04-26T20:39:02.275Z,8.20
2023-04-26T20:41:29.004Z,8.20
2023-04-26T20:43:55.955Z,8.10
2023-04-26T20:46:22.853Z,8.10
2023-04-26T20:48:52.592Z,8.00
2023-04-26T20:51:19.413Z,8.00
2023-04-26T20:53:46.177Z,8.00
2023-04-26T20:56:14.324Z,8.00
2023-04-26T20:58:41.151Z,8.00
2023-04-26T21:01:08.051Z,8.00
2023-04-26T21:03:34.994Z,8.00
2023-04-26T21:06:01.923Z,8.00
2023-04-26T21:08:28.686Z,8.00
2023-04-26T21:10:55.503Z,8.00
2023-04-26T21:13:23.650Z,8.10
2023-04-26T21:15:50.481Z,8.10
2023-04-26T21:18:17.285Z,8.20
2023-04-26T21:20:44.022Z,8.20
2023-04-26T21:23:10.777Z,8.20
2023-04-26T21:25:37.568Z,8.10
2023-04-26T21:28:04.514Z,8.10
2023-04-26T21:30:32.620Z,8.10
2023-04-26T21:32:59.395Z,8.00
2023-04-26T21:35:26.183Z,8.00
2023-04-26T21:37:53.004Z,7.90
2023-04-26T21:40:19.834Z,7.90
2023-04-26T21:42:57.728Z,7.90
2023-04-26T21:45:32.199Z,7.90
2023-04-26T21:47:59.018Z,7.80
2023-04-26T21:50:25.935Z,7.80
2023-04-26T21:52:52.889Z,7.70
2023-04-26T21:55:19.665Z,7.70
2023-04-26T21:57:46.413Z,7.60
2023-04-26T22:00:13.750Z,7.60
2023-04-26T22:02:42.128Z,7.50
2023-04-26T22:05:09.464Z,7.50
2023-04-26T22:07:36.260Z,7.50
2023-04-26T22:10:03.418Z,7.40
2023-04-26T22:12:30.208Z,7.50
2023-04-26T22:14:57.076Z,7.40
2023-04-26T22:17:23.945Z,7.40
2023-04-26T22:19:52.040Z,7.40
2023-04-26T22:22:18.838Z,7.50
2023-04-26T22:24:45.583Z,7.40
2023-04-26T22:27:12.578Z,7.40
2023-04-26T22:29:39.355Z,7.40
2023-04-26T22:32:06.239Z,7.40
2023-04-26T22:34:33.065Z,7.40
2023-04-26T22:37:13.304Z,7.30
2023-04-26T22:39:46.776Z,7.30
2023-04-26T22:42:13.675Z,7.30
2023-04-26T22:44:40.470Z,7.30
2023-04-26T22:47:07.305Z,7.30
2023-04-26T22:49:34.064Z,7.30
2023-04-26T22:52:09.863Z,7.30
2023-04-26T22:54:43.904Z,7.30
2023-04-26T22:57:11.348Z,7.30
2023-04-26T22:59:38.189Z,7.20
2023-04-26T23:02:05.033Z,7.20
2023-04-26T23:04:31.829Z,7.20
2023-04-26T23:06:58.664Z,7.20
2023-04-26T23:09:26.975Z,7.20
2023-04-26T23:11:53.854Z,7.20
2023-04-26T23:14:20.654Z,7.10
2023-04-26T23:16:47.524Z,7.10
2023-04-26T23:19:14.683Z,7.10
2023-04-26T23:21:41.743Z,7.10
2023-04-26T23:24:08.745Z,7.10
2023-04-26T23:26:36.890Z,7.00
2023-04-26T23:29:03.666Z,7.00
2023-04-26T23:31:30.540Z,6.90
2023-04-26T23:33:57.313Z,6.90
2023-04-26T23:36:24.092Z,6.90
2023-04-26T23:38:50.988Z,6.80
2023-04-26T23:41:17.885Z,6.80
2023-04-26T23:43:45.995Z,6.70
2023-04-26T23:46:12.819Z,6.70
2023-04-26T23:48:39.641Z,6.60
2023-04-26T23:51:06.474Z,6.50
2023-04-26T23:53:33.931Z,6.50
2023-04-26T23:56:02.091Z,6.40
2023-04-26T23:58:29.808Z,6.40
